Latest Weather Observations for Frederick Reef

IDQ60801

Issued at 6:35 pm EST Sunday 1 February 2015 (issued every 30 minutes, with the page automatically refreshed every 10 minutes)

About weather observations | Map of weather stations | Latest weather observations for QLD | Other Formats
Station Details ID: 200701 Name: FREDERICK REEF Lat: -20.94 Lon: 154.40 Height: 4.9 m
Data from the previous 72 hours. | See also: Recent months for locations in Queensland
Date/Time
EST
Temp
°C
App
Temp
°C
Dew
Point
Rel
Hum
%
Delta-T
°C
Wind Press
QNH
hPa
Press
MSL
hPa
Rain
since 9 am
mm
Dir
 
Spd
km/h
Gust
km/h
Spd
kts
Gust
kts
01/06:30pm 27.6 - - - - S 35 39 19 21 1005.3 - -
01/06:00pm 27.7 - - - - S 37 43 20 23 1004.8 1004.5 -
01/05:30pm 27.7 - - - - S 37 43 20 23 1004.5 - -
01/05:00pm 27.6 - - - - S 37 41 20 22 1004.2 - -
01/04:30pm 27.6 - - - - S 37 43 20 23 1004.1 - -
01/04:00pm 27.6 - - - - S 37 43 20 23 1003.8 1003.5 -
01/03:30pm 27.5 - - - - S 39 43 21 23 1003.5 - -
01/03:00pm 27.4 - - - - S 39 43 21 23 1003.8 1003.4 -
01/02:30pm 27.4 - - - - S 41 44 22 24 1003.9 - -
01/02:00pm 27.5 - - - - S 39 43 21 23 1004.2 1003.9 -
01/01:30pm 27.3 - - - - S 39 43 21 23 1004.4 - -
01/01:00pm 27.4 - - - - S 39 44 21 24 1004.6 1004.3 -
01/12:30pm 27.4 - - - - S 37 43 20 23 1004.9 - -
01/12:00pm 27.3 - - - - S 37 44 20 24 1004.9 - -
01/11:30am 27.3 - - - - S 37 44 20 24 1005.3 - -
01/11:00am 27.3 - - - - S 37 41 20 22 1005.6 - -
01/10:30am 27.2 - - - - S 35 39 19 21 1005.6 - -
01/10:00am 27.1 - - - - S 35 41 19 22 1005.6 1005.2 -
01/09:30am 26.9 - - - - S 33 39 18 21 1005.6 - -
01/09:00am 26.9 - - - - S 35 37 19 20 1005.3 1005.1 -
01/08:30am 26.9 - - - - S 35 39 19 21 1005.3 - -
01/08:00am 26.7 - - - - S 33 39 18 21 1005.1 1004.9 -
01/07:30am 26.5 - - - - S 33 39 18 21 1004.6 - -
01/07:00am 26.5 - - - - S 32 37 17 20 1004.4 - -
01/06:30am 26.3 - - - - S 32 37 17 20 1004.5 - -
01/06:00am 26.5 - - - - S 33 37 18 20 1004.6 - -
01/05:30am 26.5 - - - - S 32 37 17 20 1004.3 - -
01/05:00am 26.3 - - - - S 32 37 17 20 1003.9 1003.7 -
01/04:30am 26.4 - - - - S 32 39 17 21 1003.7 - -
01/04:00am 26.5 - - - - SSE 30 33 16 18 1003.6 1003.3 -
01/03:30am 26.6 - - - - SSE 32 37 17 20 1003.7 - -
01/03:00am 26.7 - - - - S 30 37 16 20 1003.8 1003.5 -
01/02:30am 26.6 - - - - SSE 35 39 19 21 1003.8 - -
01/02:00am 26.5 - - - - SSE 32 35 17 19 1004.1 1003.7 -
01/01:30am 26.5 - - - - SSE 30 35 16 19 1004.4 - -
01/01:00am 26.6 - - - - SSE 32 37 17 20 1004.5 - -
01/12:30am 26.7 - - - - S 33 39 18 21 1004.9 - -
01/12:00am 26.6 - - - - S 35 39 19 21 1005.1 1004.8 -
 
Date/Time
EST
Temp
°C
App
Temp
°C
Dew
Point
Rel
Hum
%
Delta-T
°C
Wind Press
QNH
hPa
Press
MSL
hPa
Rain
since 9 am
mm
Dir
 
Spd
km/h
Gust
km/h
Spd
kts
Gust
kts
31/11:30pm 26.8 - - - - S 35 41 19 22 1005.6 - -
31/11:00pm 26.9 - - - - S 35 39 19 21 1005.9 1005.5 -
31/10:30pm 27.0 - - - - SSE 35 39 19 21 1006.3 - -
31/10:00pm 26.9 - - - - S 35 43 19 23 1006.4 1006.1 -
31/09:30pm 27.1 - - - - S 39 43 21 23 1006.3 - -
31/09:00pm 27.2 - - - - S 41 44 22 24 1006.2 1005.9 -
31/08:30pm 27.2 - - - - S 41 44 22 24 1006.1 - -
31/08:00pm 27.3 - - - - S 43 48 23 26 1005.8 1005.5 -
31/07:30pm 27.2 - - - - S 43 48 23 26 1005.6 - -
31/07:00pm 27.3 - - - - S 41 46 22 25 1005.1 1004.8 -
31/06:30pm 27.3 - - - - S 41 46 22 25 1004.7 - -
31/06:00pm 27.5 - - - - S 41 46 22 25 1004.4 - -
31/05:30pm 27.4 - - - - S 41 46 22 25 1003.9 - -
31/05:00pm 27.4 - - - - S 43 48 23 26 1003.5 1003.3 -
31/04:30pm 27.3 - - - - S 39 44 21 24 1003.7 - -
31/04:00pm 27.4 - - - - S 41 46 22 25 1003.5 1003.2 -
31/03:30pm 27.5 - - - - S 39 46 21 25 1003.5 - -
31/03:00pm 27.5 - - - - S 39 44 21 24 1003.7 1003.4 -
31/02:30pm 27.5 - - - - S 37 44 20 24 1003.9 - -
31/02:00pm 27.5 - - - - S 37 43 20 23 1004.1 1003.8 -
31/01:30pm 27.6 - - - - S 39 43 21 23 1004.5 - -
31/01:00pm 27.6 - - - - SSE 35 41 19 22 1004.9 - -
31/12:30pm 27.3 - - - - S 33 39 18 21 1005.2 - -
31/12:00pm 27.3 - - - - S 35 41 19 22 1005.4 1005.1 -
31/11:30am 27.5 - - - - S 37 43 20 23 1005.6 - -
31/11:00am 27.3 - - - - S 35 41 19 22 1005.7 1005.4 -
31/10:30am 27.3 - - - - S 37 43 20 23 1006.1 - -
31/10:00am 27.3 - - - - S 37 41 20 22 1006.1 1005.7 -
31/09:30am 27.3 - - - - S 35 39 19 21 1006.3 - -
31/09:00am 27.3 - - - - S 37 41 20 22 1006.3 1006.1 -
31/08:30am 27.3 - - - - SSE 35 41 19 22 1006.0 - -
31/08:00am 27.3 - - - - SSE 35 41 19 22 1005.8 1005.6 -
31/07:30am 27.2 - - - - SSE 39 43 21 23 1005.7 - -
31/07:00am 27.1 - - - - SSE 35 39 19 21 1005.7 - -
31/06:30am 27.2 - - - - SSE 37 41 20 22 1005.5 - -
31/06:00am 27.2 - - - - SSE 33 39 18 21 1005.4 1005.2 -
31/05:30am 27.1 - - - - SSE 35 39 19 21 1005.0 - -
31/05:00am 27.0 - - - - SSE 37 41 20 22 1004.6 1004.3 -
31/04:30am 27.1 - - - - SSE 35 39 19 21 1004.5 - -
31/04:00am 27.1 - - - - SSE 37 41 20 22 1004.2 - -
31/03:30am 27.3 - - - - SSE 37 41 20 22 1004.2 - -
31/03:00am 27.3 - - - - SSE 37 41 20 22 1004.3 - -
31/02:30am 27.2 - - - - SSE 37 41 20 22 1004.3 - -
31/02:00am 27.3 - - - - SSE 35 39 19 21 1004.6 - -
31/01:30am 27.2 - - - - SSE 37 43 20 23 1004.6 - -
31/01:00am 27.3 - - - - SSE 35 39 19 21 1004.8 1004.4 -
31/12:30am 27.2 - - - - SSE 37 43 20 23 1005.0 - -
31/12:00am 27.5 - - - - SSE 37 41 20 22 1005.3 - -
 
Date/Time
EST
Temp
°C
App
Temp
°C
Dew
Point
Rel
Hum
%
Delta-T
°C
Wind Press
QNH
hPa
Press
MSL
hPa
Rain
since 9 am
mm
Dir
 
Spd
km/h
Gust
km/h
Spd
kts
Gust
kts
30/11:30pm 27.5 - - - - SSE 37 43 20 23 1005.7 - -
30/11:00pm 27.5 - - - - SSE 41 44 22 24 1005.9 - -
30/10:30pm 27.8 - - - - SSE 39 44 21 24 1006.1 - -
30/10:00pm 27.6 - - - - SSE 39 46 21 25 1005.9 1005.6 -
30/09:30pm 27.6 - - - - SSE 43 48 23 26 1005.9 - -
30/09:00pm 27.5 - - - - SSE 41 46 22 25 1005.9 1005.5 -
30/08:30pm 27.6 - - - - SSE 44 50 24 27 1005.5 - -
30/08:00pm 27.2 - - - - SSE 44 50 24 27 1005.5 - -
30/07:30pm 27.7 - - - - SSE 44 50 24 27 1005.1 - -
30/07:00pm 27.6 - - - - SSE 43 48 23 26 1005.0 - -
30/06:30pm 27.7 - - - - SSE 44 50 24 27 1004.6 - -
30/06:00pm 27.8 - - - - SSE 44 48 24 26 1004.3 - -
30/05:30pm 27.7 - - - - SSE 44 48 24 26 1004.1 - -
30/05:00pm 27.7 - - - - SSE 43 48 23 26 1003.8 - -
30/04:30pm 27.7 - - - - SSE 41 46 22 25 1003.5 - -
30/04:00pm 27.9 - - - - SSE 41 46 22 25 1003.4 1003.1 -
30/03:30pm 27.7 - - - - SSE 39 44 21 24 1003.2 - -
30/03:00pm 27.7 - - - - SSE 35 41 19 22 1003.3 1003.0 -
30/02:30pm 27.7 - - - - SSE 35 39 19 21 1003.4 - -
30/02:00pm 27.6 - - - - SSE 26 32 14 17 1003.6 1003.3 -
30/01:30pm 27.1 - - - - SE 26 30 14 16 1003.8 - -
30/01:00pm 27.0 - - - - SE 32 35 17 19 1004.0 1003.7 -
30/12:30pm 26.7 - - - - ESE 33 39 18 21 1004.2 - -
30/12:00pm 26.8 - - - - SE 35 41 19 22 1004.5 1004.2 -
30/11:30am 26.8 - - - - ESE 37 41 20 22 1004.9 - -
30/11:00am 26.5 - - - - E 37 43 20 23 1005.1 1004.8 -
30/10:30am 26.6 - - - - ESE 41 46 22 25 1005.2 - -
30/10:00am 26.1 - - - - E 44 52 24 28 1005.2 1004.9 -
30/09:30am 26.0 - - - - E 50 56 27 30 1005.4 - -
30/09:28am 26.1 - - - - ESE 48 56 26 30 1005.3 - -
30/09:00am 27.4 - - - - SE 41 46 22 25 1005.5 1005.2 -
30/08:30am 27.7 - - - - SE 41 46 22 25 1005.5 - -
30/08:00am 27.3 - - - - SE 37 44 20 24 1005.2 1004.9 -
30/07:30am 26.2 - - - - ESE 35 39 19 21 1005.3 - -
30/07:00am 25.9 - - - - ESE 37 41 20 22 1005.1 - -
30/06:30am 25.5 - - - - SE 37 43 20 23 1004.9 - -
30/06:00am 25.3 - - - - SE 43 46 23 25 1004.5 1004.4 -
30/05:30am 24.8 - - - - SE 48 56 26 30 1004.2 - -
30/05:00am 24.4 - - - - SE 48 65 26 35 1004.0 1003.8 -
30/04:30am 25.5 - - - - SSE 48 52 26 28 1003.6 - -
30/04:00am 25.5 - - - - S 48 56 26 30 1003.5 1003.2 -
30/03:30am 25.3 - - - - S 54 59 29 32 1003.6 - -
30/03:00am 25.6 - - - - S 44 52 24 28 1003.5 - -
30/02:30am 25.5 - - - - S 48 54 26 29 1003.6 - -
30/02:00am 26.0 - - - - S 44 52 24 28 1003.9 - -
30/01:30am 26.2 - - - - S 46 50 25 27 1003.9 - -
30/01:00am 26.1 - - - - S 43 48 23 26 1004.1 - -
30/12:30am 26.2 - - - - S 41 48 22 26 1004.5 - -
30/12:13am 26.5 - - - - S 41 44 22 24 1004.6 - -
30/12:00am 26.7 - - - - S 2 7 1 4 1004.9 1004.3 -
 
Date/Time
EST
Temp
°C
App
Temp
°C
Dew
Point
Rel
Hum
%
Delta-T
°C
Wind Press
QNH
hPa
Press
MSL
hPa
Rain
since 9 am
mm
Dir
 
Spd
km/h
Gust
km/h
Spd
kts
Gust
kts
29/11:30pm 28.0 - - - - SSE 2 6 1 3 1005.2 - -
29/11:00pm 28.0 - - - - SE 2 6 1 3 1005.4 - -
29/10:30pm 28.1 - - - - SE 2 6 1 3 1005.5 - -
29/10:00pm 28.1 - - - - SE 2 6 1 3 1005.5 - -
29/09:30pm 28.1 - - - - CALM 0 7 0 4 1005.4 - -
29/09:00pm 28.0 - - - - ESE 2 6 1 3 1005.2 1004.9 -
29/08:30pm 28.0 - - - - ESE 2 6 1 3 1004.8 - -
29/08:00pm 28.1 - - - - ESE 2 6 1 3 1004.7 - -
29/07:30pm 28.1 - - - - ESE 2 6 1 3 1004.4 - -
29/07:00pm 28.2 - - - - ESE 2 6 1 3 1004.1 - -

Other Formats:

Comma delimited format used in spreadsheet applications
http://www.bom.gov.au/fwo/IDQ60801/IDQ60801.94393.axf

JavaScript Object Notation format (JSON) in row-major order
http://www.bom.gov.au/fwo/IDQ60801/IDQ60801.94393.json